Time;durP1;ratioP1;P1;durP2;ratioP2;P2;SDS_P1;SDS_P2;PMS_P1;PMS_P2;Temp;Humidity;BMP_temperature;BMP_pressure;BME280_temperature;BME280_humidity;BME280_pressure;Samples;Min_cycle;Max_cycle;Signal;HPM_P1;HPM_P2
2023/08/30 00:02:01;;;;;;;4.47;2.30;;;;;;;11.57;100.00;100199.88;6099251;28;20029;-67
2023/08/30 00:05:00;;;;;;;6.33;2.13;;;;;;;11.58;100.00;100220.09;6097730;28;20362;-67
2023/08/30 00:07:55;;;;;;;3.83;2.03;;;;;;;11.53;100.00;100214.44;6099135;28;20041;-66
2023/08/30 00:10:51;;;;;;;5.72;2.33;;;;;;;11.47;100.00;100219.59;6098421;28;20166;-66
2023/08/30 00:13:47;;;;;;;4.78;2.08;;;;;;;11.41;100.00;100231.72;6098317;28;20060;-66
2023/08/30 00:16:43;;;;;;;5.05;2.45;;;;;;;11.45;100.00;100233.03;6098812;28;20039;-66
2023/08/30 00:19:38;;;;;;;5.73;3.10;;;;;;;11.47;100.00;100220.41;6098532;28;20029;-66
2023/08/30 00:22:34;;;;;;;5.30;3.03;;;;;;;11.54;100.00;100210.81;6098744;28;20351;-67
2023/08/30 00:25:29;;;;;;;8.43;3.80;;;;;;;11.60;100.00;100214.63;6097405;28;20112;-66
2023/08/30 00:28:24;;;;;;;8.07;3.35;;;;;;;11.55;100.00;100216.97;6098354;28;20033;-67
2023/08/30 00:31:20;;;;;;;7.87;4.27;;;;;;;11.59;100.00;100202.34;6098462;28;20515;-66
2023/08/30 00:34:15;;;;;;;6.95;3.47;;;;;;;11.60;100.00;100196.88;6097186;28;20040;-67
2023/08/30 00:37:11;;;;;;;6.13;3.20;;;;;;;11.67;100.00;100192.56;6098324;28;20044;-67
2023/08/30 00:40:06;;;;;;;5.77;3.03;;;;;;;11.77;100.00;100219.81;6097982;28;20035;-67
2023/08/30 00:43:02;;;;;;;8.40;3.47;;;;;;;11.73;100.00;100215.84;6098091;28;20029;-66
2023/08/30 00:45:57;;;;;;;6.70;3.88;;;;;;;11.85;100.00;100203.88;6097510;28;20039;-67
2023/08/30 00:48:53;;;;;;;7.50;3.53;;;;;;;11.57;100.00;100213.13;6097752;28;20404;-67
2023/08/30 00:51:48;;;;;;;5.75;3.40;;;;;;;11.74;100.00;100228.09;6079859;28;20480;-67
2023/08/30 00:54:43;;;;;;;6.60;4.10;;;;;;;11.85;100.00;100203.03;6096674;28;20040;-66
2023/08/30 00:57:39;;;;;;;8.38;4.07;;;;;;;12.04;100.00;100223.94;6097962;28;20393;-66
2023/08/30 01:00:34;;;;;;;6.72;4.13;;;;;;;11.51;100.00;100200.50;6097460;28;20036;-66
2023/08/30 01:03:30;;;;;;;9.90;4.03;;;;;;;11.41;100.00;100210.47;6096902;28;20029;-66
2023/08/30 01:06:26;;;;;;;7.00;4.35;;;;;;;11.35;100.00;100208.47;6097224;28;20028;-66
2023/08/30 01:09:22;;;;;;;9.35;4.53;;;;;;;11.18;100.00;100198.78;6096516;28;20032;-67
2023/08/30 01:12:21;;;;;;;7.07;4.78;;;;;;;11.24;100.00;100219.38;6097207;28;20098;-67
2023/08/30 01:15:20;;;;;;;7.55;4.85;;;;;;;11.07;100.00;100191.13;6078967;28;20085;-66
2023/08/30 01:18:20;;;;;;;8.15;4.63;;;;;;;11.15;100.00;100202.59;6113141;28;20068;-66
2023/08/30 01:21:27;;;;;;;9.45;5.15;;;;;;;11.07;100.00;100197.28;6079241;28;20029;-67
2023/08/30 01:24:29;;;;;;;8.68;5.35;;;;;;;11.02;100.00;100202.25;6095894;28;20040;-66
2023/08/30 01:27:25;;;;;;;8.30;4.85;;;;;;;10.94;100.00;100199.56;6097271;28;20108;-67
2023/08/30 01:30:22;;;;;;;7.60;4.93;;;;;;;10.88;100.00;100196.72;6079029;28;20044;-66
2023/08/30 01:33:18;;;;;;;8.18;5.10;;;;;;;10.95;100.00;100203.06;6096819;28;20476;-67
2023/08/30 01:36:14;;;;;;;8.90;5.43;;;;;;;10.86;100.00;100194.22;6096323;28;20047;-66
2023/08/30 01:39:14;;;;;;;8.45;5.10;;;;;;;10.87;100.00;100214.44;6079196;28;20144;-67
2023/08/30 01:42:09;;;;;;;7.38;4.65;;;;;;;10.67;100.00;100195.31;6096563;28;20155;-66
2023/08/30 01:45:08;;;;;;;7.20;4.50;;;;;;;10.70;100.00;100202.13;6078760;28;20029;-66
2023/08/30 01:48:04;;;;;;;7.88;4.43;;;;;;;10.71;100.00;100199.31;6097119;28;20491;-66
2023/08/30 01:51:00;;;;;;;8.18;4.38;;;;;;;10.77;100.00;100205.78;6096497;28;20029;-66
2023/08/30 01:53:57;;;;;;;8.45;5.00;;;;;;;10.81;100.00;100201.84;6096233;28;20036;-66
2023/08/30 01:56:52;;;;;;;7.30;4.25;;;;;;;11.02;100.00;100204.91;6078940;28;20041;-66
2023/08/30 01:59:48;;;;;;;8.43;4.93;;;;;;;11.02;100.00;100193.44;6078981;28;20048;-66
2023/08/30 02:02:43;;;;;;;8.55;4.45;;;;;;;10.94;100.00;100186.31;6096678;28;20032;-66
2023/08/30 02:06:01;;;;;;;10.10;4.90;;;;;;;11.03;100.00;100208.38;6095886;28;20075;-66
2023/08/30 02:09:02;;;;;;;7.10;3.97;;;;;;;10.96;100.00;100197.56;6096593;28;20037;-67
2023/08/30 02:12:00;;;;;;;9.25;4.35;;;;;;;10.81;100.00;100201.84;6096820;28;20448;-64
2023/08/30 02:14:57;;;;;;;6.40;4.40;;;;;;;10.72;100.00;100197.50;6095959;28;20048;-65
2023/08/30 02:17:52;;;;;;;9.45;4.40;;;;;;;10.71;100.00;100203.78;6078978;28;20045;-65
2023/08/30 02:20:48;;;;;;;7.43;4.60;;;;;;;10.75;100.00;100195.34;6078430;28;20083;-65
2023/08/30 02:23:43;;;;;;;6.17;4.10;;;;;;;10.61;100.00;100187.16;6095519;28;20060;-65
2023/08/30 02:26:38;;;;;;;7.73;4.00;;;;;;;10.47;100.00;100180.63;6096281;28;20037;-65
2023/08/30 02:29:34;;;;;;;8.07;4.30;;;;;;;10.56;100.00;100198.25;6096492;28;20425;-65
2023/08/30 02:32:29;;;;;;;6.25;4.20;;;;;;;10.90;100.00;100184.94;6096119;28;20330;-65
2023/08/30 02:35:24;;;;;;;6.87;4.40;;;;;;;11.02;100.00;100185.50;6098131;28;20037;-67
2023/08/30 02:38:20;;;;;;;10.70;4.87;;;;;;;11.04;100.00;100191.44;6100741;28;20033;-67
2023/08/30 02:41:15;;;;;;;7.38;4.50;;;;;;;11.31;100.00;100201.78;6100562;28;20037;-67
2023/08/30 02:44:11;;;;;;;6.50;3.90;;;;;;;11.23;100.00;100189.34;6100034;28;20031;-66
2023/08/30 02:47:07;;;;;;;8.32;4.85;;;;;;;11.12;100.00;100183.50;6100501;28;20789;-67
2023/08/30 02:50:02;;;;;;;6.27;4.30;;;;;;;11.36;100.00;100202.97;6100675;28;20044;-65
2023/08/30 02:52:57;;;;;;;8.50;4.60;;;;;;;11.36;100.00;100191.53;6100535;28;20040;-65
2023/08/30 02:55:55;;;;;;;6.27;3.93;;;;;;;11.30;100.00;100186.88;6099524;28;20032;-65
2023/08/30 02:58:50;;;;;;;5.18;3.42;;;;;;;11.38;100.00;100194.03;6100438;28;20025;-66
2023/08/30 03:01:46;;;;;;;5.90;3.50;;;;;;;11.16;100.00;100174.25;6101110;28;20032;-66
2023/08/30 03:04:41;;;;;;;6.87;4.33;;;;;;;11.09;100.00;100192.63;6102209;28;20103;-65
2023/08/30 03:07:36;;;;;;;5.63;3.57;;;;;;;11.15;100.00;100193.81;6100332;28;20267;-66
2023/08/30 03:10:32;;;;;;;6.40;4.13;;;;;;;11.16;100.00;100185.69;6099787;28;20032;-65
2023/08/30 03:13:27;;;;;;;8.07;4.15;;;;;;;11.28;100.00;100195.00;6099575;28;20035;-65
2023/08/30 03:16:23;;;;;;;7.40;4.07;;;;;;;11.09;100.00;100189.13;6099694;28;20036;-65
2023/08/30 03:19:18;;;;;;;10.43;3.97;;;;;;;11.07;100.00;100193.78;6099760;28;20033;-65
2023/08/30 03:22:13;;;;;;;6.25;3.50;;;;;;;11.12;100.00;100178.22;6099876;28;20067;-65
2023/08/30 03:25:09;;;;;;;5.87;3.83;;;;;;;11.16;100.00;100182.22;6098396;28;20102;-65
2023/08/30 03:28:05;;;;;;;6.25;3.65;;;;;;;11.18;100.00;100196.13;6089096;28;20103;-66
2023/08/30 03:31:01;;;;;;;5.93;3.50;;;;;;;11.16;100.00;100183.03;6099495;28;20037;-66
2023/08/30 03:33:56;;;;;;;8.30;4.00;;;;;;;11.19;100.00;100179.22;6098695;28;20032;-65
2023/08/30 03:36:54;;;;;;;7.77;4.00;;;;;;;11.45;100.00;100185.22;6099531;28;20436;-66
2023/08/30 03:39:49;;;;;;;7.43;4.05;;;;;;;11.10;100.00;100169.59;6098707;28;20606;-65
2023/08/30 03:42:44;;;;;;;6.70;4.10;;;;;;;11.30;100.00;100181.59;6099429;28;20028;-66
2023/08/30 03:45:40;;;;;;;8.60;3.50;;;;;;;10.99;100.00;100183.16;6098494;28;20647;-66
2023/08/30 03:48:35;;;;;;;6.27;3.67;;;;;;;11.27;100.00;100177.44;6099305;28;20032;-65
2023/08/30 03:51:30;;;;;;;5.13;3.30;;;;;;;11.23;100.00;100175.25;6098833;28;20033;-65
2023/08/30 03:54:25;;;;;;;6.90;3.23;;;;;;;11.06;100.00;100173.56;6098686;28;20303;-65
2023/08/30 03:57:21;;;;;;;4.70;3.07;;;;;;;10.98;100.00;100165.59;6098726;28;20040;-65
2023/08/30 04:00:16;;;;;;;7.57;3.43;;;;;;;10.72;100.00;100166.50;6098437;28;20037;-66
2023/08/30 04:03:14;;;;;;;6.10;3.73;;;;;;;10.57;100.00;100165.44;6098853;28;20040;-65
2023/08/30 04:06:09;;;;;;;7.18;3.55;;;;;;;10.68;100.00;100170.44;6098253;28;20037;-66
2023/08/30 04:09:05;;;;;;;5.10;3.70;;;;;;;11.16;100.00;100168.94;6098772;28;20032;-66
2023/08/30 04:12:00;;;;;;;9.02;3.95;;;;;;;10.58;100.00;100150.34;6098990;28;20037;-66
2023/08/30 04:14:55;;;;;;;6.15;3.55;;;;;;;10.39;100.00;100154.09;6097789;28;20048;-66
2023/08/30 04:17:51;;;;;;;6.90;3.43;;;;;;;10.77;100.00;100160.72;6098376;28;20112;-65
2023/08/30 04:20:47;;;;;;;6.63;3.10;;;;;;;10.61;100.00;100144.75;6098285;28;20686;-65
2023/08/30 04:23:42;;;;;;;6.00;3.33;;;;;;;10.90;100.00;100162.91;6097055;28;20033;-65
2023/08/30 04:26:37;;;;;;;6.93;3.63;;;;;;;10.90;100.00;100149.66;6100731;28;20028;-65
2023/08/30 04:29:32;;;;;;;5.90;3.90;;;;;;;10.74;100.00;100148.59;6098038;28;20021;-66
2023/08/30 04:32:28;;;;;;;6.27;3.77;;;;;;;11.05;100.00;100163.94;6098384;28;20112;-65
2023/08/30 04:35:23;;;;;;;8.60;4.60;;;;;;;11.06;100.00;100158.47;6097220;28;20415;-65
2023/08/30 04:38:19;;;;;;;7.60;4.43;;;;;;;10.86;100.00;100162.41;6098322;28;20468;-65
2023/08/30 04:41:15;;;;;;;10.13;4.78;;;;;;;10.84;100.00;100145.00;6098114;28;20484;-66
2023/08/30 04:44:10;;;;;;;9.03;5.33;;;;;;;10.89;100.00;100146.16;6097005;28;20048;-65
2023/08/30 04:47:05;;;;;;;9.87;5.40;;;;;;;10.81;100.00;100140.84;6098178;28;20056;-65
2023/08/30 04:50:01;;;;;;;9.77;6.57;;;;;;;10.79;100.00;100144.66;6097463;28;20068;-65
2023/08/30 04:52:56;;;;;;;9.50;6.07;;;;;;;10.68;100.00;100135.16;6097601;28;20031;-65
2023/08/30 04:55:51;;;;;;;15.80;5.80;;;;;;;10.89;100.00;100140.03;6097293;28;20033;-65
2023/08/30 04:58:47;;;;;;;9.67;5.27;;;;;;;10.95;100.00;100129.56;6097186;28;20095;-65
2023/08/30 05:01:44;;;;;;;8.98;5.18;;;;;;;11.29;100.00;100127.66;6098076;28;20032;-65
2023/08/30 05:04:39;;;;;;;11.07;5.57;;;;;;;11.34;100.00;100127.16;6099628;28;20052;-65
2023/08/30 05:07:34;;;;;;;10.30;5.35;;;;;;;11.75;100.00;100147.44;6104947;28;20033;-65
2023/08/30 05:10:30;;;;;;;9.83;4.67;;;;;;;11.41;100.00;100141.44;6097611;28;20041;-65
2023/08/30 05:13:25;;;;;;;5.93;3.70;;;;;;;11.66;100.00;100135.09;6096627;28;20041;-65
2023/08/30 05:16:20;;;;;;;7.13;4.00;;;;;;;11.92;100.00;100157.03;6097244;28;20473;-65
2023/08/30 05:19:18;;;;;;;6.70;3.70;;;;;;;12.02;100.00;100121.47;6096783;28;20535;-65
2023/08/30 05:22:14;;;;;;;6.07;3.28;;;;;;;11.97;100.00;100126.47;6097540;28;20033;-65
2023/08/30 05:25:09;;;;;;;6.63;3.50;;;;;;;12.15;100.00;100129.78;6096120;28;20037;-65
2023/08/30 05:28:04;;;;;;;9.95;3.75;;;;;;;12.35;100.00;100131.84;6097028;28;20025;-65
2023/08/30 05:31:00;;;;;;;5.93;3.40;;;;;;;13.10;100.00;100122.34;6097241;28;20457;-65
2023/08/30 05:33:55;;;;;;;5.07;2.80;;;;;;;13.39;100.00;100148.28;6096174;28;20349;-65
2023/08/30 05:36:50;;;;;;;5.03;2.90;;;;;;;13.43;100.00;100138.06;6097019;28;20505;-65
2023/08/30 05:39:46;;;;;;;5.93;2.63;;;;;;;13.90;100.00;100157.34;6097118;28;20294;-65
2023/08/30 05:42:41;;;;;;;6.10;3.00;;;;;;;14.00;100.00;100141.91;6096820;28;20276;-66
2023/08/30 05:45:37;;;;;;;5.43;2.65;;;;;;;13.77;100.00;100143.81;6096463;28;20091;-66
2023/08/30 05:48:33;;;;;;;4.83;2.80;;;;;;;13.32;100.00;100146.47;6097045;28;20571;-66
2023/08/30 05:51:28;;;;;;;5.40;2.47;;;;;;;14.02;100.00;100142.53;6096868;28;20037;-65
2023/08/30 05:54:26;;;;;;;5.20;2.47;;;;;;;14.17;100.00;100132.72;6103258;28;20033;-66
2023/08/30 05:57:23;;;;;;;4.53;2.90;;;;;;;14.46;100.00;100141.78;6097026;28;20025;-66
2023/08/30 06:00:19;;;;;;;8.93;2.80;;;;;;;14.80;100.00;100132.16;6108481;28;20033;-66
2023/08/30 06:03:15;;;;;;;5.35;3.00;;;;;;;14.91;100.00;100114.81;6098775;28;20071;-66
2023/08/30 06:06:10;;;;;;;4.60;2.80;;;;;;;14.58;100.00;100110.94;6101413;28;20111;-65
2023/08/30 06:09:05;;;;;;;6.43;2.92;;;;;;;14.45;100.00;100121.44;6097000;28;20055;-65
2023/08/30 06:12:01;;;;;;;5.37;3.30;;;;;;;14.75;100.00;100125.72;6101619;28;20499;-65
2023/08/30 06:14:56;;;;;;;6.90;3.23;;;;;;;14.70;100.00;100126.25;6100389;28;20025;-66
2023/08/30 06:17:51;;;;;;;6.27;3.63;;;;;;;14.88;100.00;100104.50;6100381;28;20076;-66
2023/08/30 06:20:47;;;;;;;5.82;3.15;;;;;;;14.97;100.00;100127.44;6100777;28;20031;-66
2023/08/30 06:23:42;;;;;;;8.07;2.73;;;;;;;15.26;100.00;100124.66;6100161;28;20111;-66
2023/08/30 06:26:37;;;;;;;5.83;3.10;;;;;;;15.07;100.00;100109.25;6114925;28;20622;-66
2023/08/30 06:29:33;;;;;;;6.88;3.13;;;;;;;15.12;100.00;100122.00;6104070;28;20408;-65
2023/08/30 06:32:28;;;;;;;6.83;3.17;;;;;;;14.96;100.00;100117.75;6100731;28;20083;-66
2023/08/30 06:35:24;;;;;;;4.97;2.93;;;;;;;15.40;100.00;100110.41;6099395;28;20029;-66
2023/08/30 06:38:19;;;;;;;5.85;3.22;;;;;;;15.46;100.00;100093.59;6100953;28;20033;-66
2023/08/30 06:41:15;;;;;;;4.82;3.38;;;;;;;15.43;100.00;100110.00;6100879;28;20029;-66
2023/08/30 06:44:10;;;;;;;6.05;2.92;;;;;;;15.41;100.00;100108.53;6100241;28;20051;-66
2023/08/30 06:47:05;;;;;;;4.70;3.30;;;;;;;15.69;100.00;100097.91;6099762;28;20029;-66
2023/08/30 06:50:01;;;;;;;6.23;3.00;;;;;;;16.29;96.88;100111.47;6100752;28;20068;-66
2023/08/30 06:52:56;;;;;;;4.87;2.90;;;;;;;16.28;98.01;100087.59;6098332;28;20268;-66
2023/08/30 06:55:58;;;;;;;6.67;2.83;;;;;;;16.42;95.80;100098.16;6106993;28;20111;-66
2023/08/30 06:58:54;;;;;;;6.60;3.20;;;;;;;15.77;99.32;100073.69;6105868;28;20030;-66
2023/08/30 07:01:49;;;;;;;5.37;3.07;;;;;;;15.97;100.00;100090.72;6101553;28;20037;-66
2023/08/30 07:04:45;;;;;;;5.72;3.00;;;;;;;16.36;100.00;100103.50;6105741;28;20049;-66
2023/08/30 07:07:40;;;;;;;4.97;2.50;;;;;;;16.52;98.05;100105.84;6099913;28;20063;-66
2023/08/30 07:10:36;;;;;;;6.75;3.47;;;;;;;17.06;94.10;100093.28;6102581;28;20507;-66
2023/08/30 07:13:31;;;;;;;5.40;2.35;;;;;;;16.65;95.36;100093.38;6102774;28;20381;-66
2023/08/30 07:16:27;;;;;;;6.43;2.70;;;;;;;16.47;94.53;100093.03;6112580;28;20033;-67
2023/08/30 07:19:22;;;;;;;5.43;3.10;;;;;;;16.43;94.96;100086.44;6104430;28;20102;-66
2023/08/30 07:22:17;;;;;;;5.80;2.80;;;;;;;16.42;95.05;100083.94;6102121;28;20503;-66
2023/08/30 07:25:13;;;;;;;5.00;2.20;;;;;;;16.55;95.43;100106.28;6106304;28;20287;-66
2023/08/30 07:28:10;;;;;;;4.15;2.58;;;;;;;16.71;93.23;100093.59;6105723;28;20329;-66
2023/08/30 07:31:06;;;;;;;4.25;2.40;;;;;;;17.26;91.12;100101.31;6105612;28;20036;-67
2023/08/30 07:34:02;;;;;;;4.50;2.03;;;;;;;17.29;92.54;100087.53;6106815;28;20090;-66
2023/08/30 07:36:58;;;;;;;5.22;2.38;;;;;;;17.68;86.82;100097.47;6103880;28;20396;-66
2023/08/30 07:39:53;;;;;;;7.13;2.33;;;;;;;18.11;85.11;100093.28;6111126;28;20032;-66
2023/08/30 07:42:48;;;;;;;5.57;2.47;;;;;;;18.19;82.71;100086.88;6113030;28;20033;-68
2023/08/30 07:45:44;;;;;;;5.53;2.33;;;;;;;18.33;79.77;100085.78;6098572;28;20032;-65
2023/08/30 07:48:39;;;;;;;4.60;2.80;;;;;;;18.35;79.07;100094.44;6110345;28;20029;-65
2023/08/30 07:51:34;;;;;;;8.20;2.47;;;;;;;18.30;80.72;100113.88;6116917;28;20044;-66
2023/08/30 07:54:30;;;;;;;7.03;3.43;;;;;;;18.00;82.31;100111.88;6108419;28;20427;-65
2023/08/30 07:57:26;;;;;;;7.15;3.13;;;;;;;18.01;82.36;100095.59;6106345;28;20036;-65
2023/08/30 08:00:21;;;;;;;8.05;2.80;;;;;;;18.27;82.29;100114.31;6117853;28;20043;-66
2023/08/30 08:03:17;;;;;;;6.93;2.80;;;;;;;18.61;80.79;100105.16;6101478;28;20500;-66
2023/08/30 08:06:12;;;;;;;5.25;2.85;;;;;;;18.51;80.44;100107.44;6106613;28;20283;-66
2023/08/30 08:09:08;;;;;;;8.35;3.20;;;;;;;18.62;78.68;100103.25;6119008;28;20074;-65
2023/08/30 08:12:03;;;;;;;5.37;3.30;;;;;;;18.32;80.96;100082.28;6108779;28;20033;-65
2023/08/30 08:14:59;;;;;;;4.85;2.85;;;;;;;18.53;81.24;100091.13;6099432;28;20287;-66
2023/08/30 08:17:54;;;;;;;7.10;3.57;;;;;;;18.20;81.40;100107.31;6102556;28;20031;-65
2023/08/30 08:20:50;;;;;;;5.97;3.43;;;;;;;18.56;82.50;100102.28;6101562;28;20029;-66
2023/08/30 08:23:49;;;;;;;8.18;3.75;;;;;;;18.79;79.60;100086.47;6100377;28;20031;-66
2023/08/30 08:26:44;;;;;;;6.65;3.28;;;;;;;19.28;76.91;100087.59;6100030;28;20438;-66
2023/08/30 08:29:39;;;;;;;6.80;3.90;;;;;;;19.07;78.16;100086.09;6100026;28;20037;-66
2023/08/30 08:32:36;;;;;;;7.00;3.93;;;;;;;19.40;76.28;100083.22;6098780;28;20033;-66
2023/08/30 08:35:31;;;;;;;6.43;3.67;;;;;;;19.31;77.64;100090.69;6099646;28;20033;-66
2023/08/30 08:38:26;;;;;;;7.07;3.90;;;;;;;19.38;76.09;100082.59;6107641;28;20118;-66
2023/08/30 08:41:25;;;;;;;8.67;3.73;;;;;;;19.40;77.26;100083.22;6101016;28;20032;-66
2023/08/30 08:44:21;;;;;;;7.38;4.20;;;;;;;19.80;75.09;100076.44;6100839;28;20040;-65
2023/08/30 08:47:17;;;;;;;10.40;4.45;;;;;;;19.83;72.59;100057.19;6081876;28;20107;-66
2023/08/30 08:50:12;;;;;;;9.65;4.57;;;;;;;19.76;71.29;100053.72;6101555;28;20037;-66
2023/08/30 08:53:08;;;;;;;6.03;3.63;;;;;;;19.79;72.12;100071.28;6100958;28;20398;-66
2023/08/30 08:56:04;;;;;;;7.43;4.00;;;;;;;19.70;72.17;100078.84;6080549;28;20037;-66
2023/08/30 08:58:59;;;;;;;6.13;3.63;;;;;;;20.08;70.67;100052.53;6101940;28;20075;-66
2023/08/30 09:01:55;;;;;;;9.70;4.03;;;;;;;19.87;70.06;100063.75;6100011;28;20431;-66
2023/08/30 09:04:52;;;;;;;5.18;3.35;;;;;;;19.79;72.13;100047.88;6102107;28;20036;-65
2023/08/30 09:07:48;;;;;;;6.55;4.20;;;;;;;19.66;71.66;100060.63;6083552;28;20029;-66
2023/08/30 09:10:44;;;;;;;9.30;4.75;;;;;;;19.48;68.46;100064.13;6100805;28;20119;-66
2023/08/30 09:13:39;;;;;;;9.10;4.50;;;;;;;19.43;69.30;100062.06;6099513;28;20564;-66
2023/08/30 09:16:34;;;;;;;7.20;4.33;;;;;;;19.70;68.93;100067.25;6099522;28;20295;-66
2023/08/30 09:19:30;;;;;;;8.67;4.63;;;;;;;19.95;68.63;100074.22;6100211;28;20271;-66
2023/08/30 09:22:35;;;;;;;8.02;4.20;;;;;;;20.13;69.25;100081.50;6100897;28;20087;-66
2023/08/30 09:25:31;;;;;;;11.75;4.22;;;;;;;20.11;67.83;100081.72;6101522;28;20025;-66
2023/08/30 09:28:26;;;;;;;10.80;4.37;;;;;;;20.27;66.87;100074.13;6101403;28;20033;-66
2023/08/30 09:31:22;;;;;;;6.72;4.63;;;;;;;20.11;66.54;100065.56;6100973;28;20535;-66
2023/08/30 09:34:17;;;;;;;7.00;4.17;;;;;;;20.05;65.30;100077.25;6101821;28;20044;-67
2023/08/30 09:37:22;;;;;;;7.97;5.37;;;;;;;19.99;65.86;100074.63;6099965;28;20287;-67
2023/08/30 09:40:19;;;;;;;7.28;4.78;;;;;;;19.98;66.28;100081.84;6107209;28;20036;-67
2023/08/30 09:43:18;;;;;;;6.15;4.03;;;;;;;20.24;66.87;100074.56;6100092;28;20040;-67
2023/08/30 09:46:14;;;;;;;7.57;3.97;;;;;;;20.49;65.62;100080.72;6104500;28;20552;-67
2023/08/30 09:49:09;;;;;;;5.78;3.42;;;;;;;20.64;64.62;100060.41;6100961;28;20051;-67
2023/08/30 09:52:08;;;;;;;4.90;3.35;;;;;;;20.71;63.46;100080.00;6085959;28;20055;-67
2023/08/30 09:55:04;;;;;;;6.10;3.47;;;;;;;20.71;62.54;100063.00;6102821;28;20484;-67
2023/08/30 09:58:02;;;;;;;4.75;3.22;;;;;;;20.80;62.23;100067.03;6104133;28;20495;-67
2023/08/30 10:00:58;;;;;;;5.80;3.10;;;;;;;20.40;64.79;100058.66;6106449;28;20037;-67
2023/08/30 10:03:55;;;;;;;7.40;4.03;;;;;;;20.70;61.46;100054.13;6103574;28;21638;-67
2023/08/30 10:06:51;;;;;;;6.63;3.78;;;;;;;20.83;61.81;100063.88;6104370;28;20025;-67
2023/08/30 10:09:47;;;;;;;8.48;3.90;;;;;;;21.08;61.43;100053.81;6104943;28;20040;-68
2023/08/30 10:12:44;;;;;;;6.85;4.47;;;;;;;20.91;61.93;100066.25;6090070;28;20036;-67
2023/08/30 10:15:47;;;;;;;9.77;5.45;;;;;;;20.72;62.90;100045.78;6109223;28;20060;-67
2023/08/30 10:18:42;;;;;;;10.00;5.80;;;;;;;20.27;64.11;100041.81;6105027;28;20044;-67
2023/08/30 10:21:38;;;;;;;8.07;4.85;;;;;;;20.40;64.99;100050.56;6086470;28;20531;-67
2023/08/30 10:24:40;;;;;;;8.90;5.43;;;;;;;20.12;66.32;100051.06;6105071;28;20044;-67
2023/08/30 10:27:37;;;;;;;8.98;5.22;;;;;;;20.69;64.45;100040.84;6083444;28;20047;-68
2023/08/30 10:30:33;;;;;;;8.52;4.85;;;;;;;20.80;62.95;100026.59;6108314;28;20053;-67
2023/08/30 10:33:28;;;;;;;7.50;4.10;;;;;;;20.99;63.08;100041.66;6085452;28;20451;-67
2023/08/30 10:36:24;;;;;;;7.37;4.47;;;;;;;21.02;61.75;100048.47;6101534;28;20043;-67
2023/08/30 10:39:19;;;;;;;7.18;3.90;;;;;;;21.64;60.55;100033.59;6114398;28;20029;-67
2023/08/30 10:42:16;;;;;;;8.73;4.37;;;;;;;20.79;60.08;100036.56;6104603;28;20075;-67
2023/08/30 10:45:11;;;;;;;7.47;4.63;;;;;;;20.42;62.92;100031.47;6103248;28;20436;-67
2023/08/30 10:48:06;;;;;;;5.57;3.60;;;;;;;21.09;60.87;100041.97;6099689;28;20037;-67
2023/08/30 10:51:04;;;;;;;6.93;3.83;;;;;;;21.64;58.99;100037.13;6105096;28;20040;-67
2023/08/30 10:54:00;;;;;;;6.63;3.50;;;;;;;21.81;56.84;100029.97;6092616;28;20033;-67
2023/08/30 10:56:58;;;;;;;6.75;4.45;;;;;;;21.46;57.25;100028.31;6112018;28;20075;-67
2023/08/30 11:00:07;;;;;;;8.52;3.65;;;;;;;21.78;58.60;100029.59;6108581;28;20029;-67
2023/08/30 11:03:03;;;;;;;5.88;3.38;;;;;;;22.15;56.30;100022.88;6106324;28;20113;-67
2023/08/30 11:06:01;;;;;;;9.18;4.60;;;;;;;21.50;57.42;100013.31;6104165;28;20080;-67
2023/08/30 11:08:56;;;;;;;8.25;3.95;;;;;;;21.20;58.86;100008.78;6105690;28;20467;-67
2023/08/30 11:11:52;;;;;;;5.80;3.67;;;;;;;21.15;58.50;100014.06;6102784;28;20048;-67
2023/08/30 11:14:47;;;;;;;8.10;4.25;;;;;;;21.24;59.44;100010.00;6102845;28;20063;-67
2023/08/30 11:17:43;;;;;;;7.20;3.77;;;;;;;21.46;56.84;100009.41;6099819;28;20033;-67
2023/08/30 11:20:38;;;;;;;7.47;4.10;;;;;;;21.63;55.48;100000.41;6097129;28;20056;-67
2023/08/30 11:23:33;;;;;;;6.90;3.90;;;;;;;21.57;56.40;99989.72;6080785;28;20419;-67
2023/08/30 11:26:29;;;;;;;6.77;4.03;;;;;;;21.75;55.69;100000.38;6100222;28;20110;-67
2023/08/30 11:29:26;;;;;;;7.35;4.53;;;;;;;21.64;55.84;99993.09;6101276;28;20304;-67
2023/08/30 11:32:21;;;;;;;6.82;4.07;;;;;;;22.12;55.71;100009.88;6102659;28;20423;-67
2023/08/30 11:35:17;;;;;;;7.73;3.80;;;;;;;22.11;53.94;99991.19;6099136;28;20040;-67
2023/08/30 11:38:13;;;;;;;8.50;4.07;;;;;;;21.77;54.75;100000.94;6099620;28;20032;-68
2023/08/30 11:41:09;;;;;;;6.72;4.53;;;;;;;21.43;56.81;99999.91;6100306;28;20037;-68
2023/08/30 11:44:05;;;;;;;5.57;3.50;;;;;;;22.08;55.53;99979.00;6079709;28;20033;-67
2023/08/30 11:47:00;;;;;;;5.45;3.22;;;;;;;22.18;54.46;99987.28;6098079;28;20043;-67
2023/08/30 11:49:57;;;;;;;6.70;4.10;;;;;;;21.67;55.02;99974.56;6101838;28;20032;-66
2023/08/30 11:52:52;;;;;;;7.20;3.72;;;;;;;21.46;56.54;99987.84;6081117;28;20699;-67
2023/08/30 11:55:48;;;;;;;5.88;3.83;;;;;;;21.09;56.00;99977.25;6080175;28;20053;-67
2023/08/30 11:58:43;;;;;;;5.13;3.33;;;;;;;20.89;56.60;99974.03;6098344;28;20546;-67
2023/08/30 12:01:38;;;;;;;6.60;3.28;;;;;;;20.94;57.69;99994.88;6098237;28;20383;-67
2023/08/30 12:04:41;;;;;;;5.17;3.13;;;;;;;20.72;59.43;99983.81;6098682;28;20032;-67
2023/08/30 12:07:37;;;;;;;6.47;3.33;;;;;;;20.75;60.27;99975.25;6096107;28;20047;-67
2023/08/30 12:10:33;;;;;;;5.13;3.30;;;;;;;20.42;61.08;99977.59;6096558;28;20033;-67
2023/08/30 12:13:30;;;;;;;7.43;3.45;;;;;;;20.16;62.27;99979.53;6099625;28;20056;-67
2023/08/30 12:16:25;;;;;;;5.47;3.15;;;;;;;19.81;63.23;99954.28;6079333;28;20037;-67
2023/08/30 12:19:21;;;;;;;6.53;3.70;;;;;;;19.62;64.61;99963.44;6099886;28;20492;-67
2023/08/30 12:22:17;;;;;;;7.28;3.90;;;;;;;19.49;66.62;99969.75;6099201;28;20037;-67
2023/08/30 12:25:18;;;;;;;6.63;3.30;;;;;;;19.34;68.29;99954.97;6097288;28;20040;-67
2023/08/30 12:28:13;;;;;;;8.90;3.35;;;;;;;19.06;68.78;99951.91;6099403;28;20036;-67
2023/08/30 12:31:09;;;;;;;6.77;3.60;;;;;;;19.02;75.38;99967.69;6098971;28;20502;-67
2023/08/30 12:34:04;;;;;;;8.10;3.50;;;;;;;18.53;82.16;99965.75;6097607;28;20032;-66
2023/08/30 12:37:00;;;;;;;6.23;3.63;;;;;;;18.10;87.30;99957.44;6095553;28;20025;-66
2023/08/30 12:39:55;;;;;;;6.90;3.97;;;;;;;17.83;90.84;99967.47;6098846;28;20079;-66
2023/08/30 12:42:50;;;;;;;6.10;3.73;;;;;;;17.74;94.59;99952.66;6095511;28;20033;-66
2023/08/30 12:45:46;;;;;;;8.73;3.87;;;;;;;17.59;92.28;99927.91;6109210;28;20044;-66
2023/08/30 12:48:42;;;;;;;6.80;3.58;;;;;;;17.97;94.00;99943.25;6096450;28;20307;-66
2023/08/30 12:51:37;;;;;;;7.93;3.93;;;;;;;18.19;85.46;99939.25;6098946;28;20525;-67
2023/08/30 12:54:32;;;;;;;5.77;3.43;;;;;;;18.64;86.55;99942.75;6096779;28;20044;-66
2023/08/30 12:57:28;;;;;;;5.93;3.80;;;;;;;18.95;85.60;99940.84;6107362;28;20780;-66
2023/08/30 13:00:24;;;;;;;10.50;4.27;;;;;;;18.79;79.31;99924.44;6102505;28;20032;-66
2023/08/30 13:03:19;;;;;;;7.78;3.90;;;;;;;19.35;76.50;99919.78;6103357;28;20036;-66
2023/08/30 13:06:14;;;;;;;6.43;4.03;;;;;;;19.17;73.73;99916.25;6101439;28;20055;-67
2023/08/30 13:09:09;;;;;;;6.40;4.10;;;;;;;19.12;73.71;99910.72;6100265;28;20036;-66
2023/08/30 13:12:05;;;;;;;7.03;4.07;;;;;;;19.17;73.96;99913.56;6105654;28;20032;-66
2023/08/30 13:15:01;;;;;;;8.77;4.53;;;;;;;19.21;75.92;99907.53;6095207;28;20033;-67
2023/08/30 13:17:56;;;;;;;8.05;4.18;;;;;;;19.35;73.50;99902.84;6104230;28;20246;-66
2023/08/30 13:20:54;;;;;;;7.80;4.10;;;;;;;19.39;73.39;99893.31;6106756;28;20475;-67
2023/08/30 13:23:49;;;;;;;8.60;5.10;;;;;;;20.02;71.81;99900.03;6102394;28;20275;-67
2023/08/30 13:26:44;;;;;;;7.57;4.77;;;;;;;20.18;68.27;99904.78;6103468;28;20056;-67
2023/08/30 13:29:40;;;;;;;6.63;4.43;;;;;;;20.37;66.90;99883.19;6111237;28;20502;-67
2023/08/30 13:32:35;;;;;;;5.87;4.00;;;;;;;21.26;65.27;99902.69;6098727;28;20407;-67
2023/08/30 13:35:30;;;;;;;8.57;4.67;;;;;;;21.32;60.01;99885.56;6099428;28;20287;-67